sensor_id;sensor_type;location;lat;lon;timestamp;pressure;altitude;pressure_sealevel;temperature;humidity
22047;BME280;11187;49.412;20.956;2023-06-14T00:01:22;94884.91;;;11.57;100.00
22047;BME280;11187;49.412;20.956;2023-06-14T00:04:08;94878.06;;;11.56;100.00
22047;BME280;11187;49.412;20.956;2023-06-14T00:06:43;94876.38;;;11.56;100.00
22047;BME280;11187;49.412;20.956;2023-06-14T00:09:30;94873.81;;;11.56;100.00
22047;BME280;11187;49.412;20.956;2023-06-14T00:12:07;94875.50;;;11.56;100.00
22047;BME280;11187;49.412;20.956;2023-06-14T00:15:00;94876.38;;;11.56;100.00
22047;BME280;11187;49.412;20.956;2023-06-14T00:17:55;94877.22;;;11.57;100.00
22047;BME280;11187;49.412;20.956;2023-06-14T00:20:31;94869.53;;;11.57;100.00
22047;BME280;11187;49.412;20.956;2023-06-14T00:23:18;94873.81;;;11.56;100.00
22047;BME280;11187;49.412;20.956;2023-06-14T00:25:52;94860.13;;;11.56;100.00
22047;BME280;11187;49.412;20.956;2023-06-14T00:28:45;94870.44;;;11.54;100.00
22047;BME280;11187;49.412;20.956;2023-06-14T00:31:39;94871.31;;;11.53;100.00
22047;BME280;11187;49.412;20.956;2023-06-14T00:34:34;94867.03;;;11.54;100.00
22047;BME280;11187;49.412;20.956;2023-06-14T00:37:07;94870.44;;;11.54;100.00
22047;BME280;11187;49.412;20.956;2023-06-14T00:39:53;94860.19;;;11.54;100.00
22047;BME280;11187;49.412;20.956;2023-06-14T00:42:28;94865.34;;;11.53;100.00
22047;BME280;11187;49.412;20.956;2023-06-14T00:45:15;94867.06;;;11.52;100.00
22047;BME280;11187;49.412;20.956;2023-06-14T00:47:49;94860.25;;;11.51;100.00
22047;BME280;11187;49.412;20.956;2023-06-14T00:50:37;94864.53;;;11.50;100.00
22047;BME280;11187;49.412;20.956;2023-06-14T00:53:15;94856.84;;;11.50;100.00
22047;BME280;11187;49.412;20.956;2023-06-14T00:56:03;94852.56;;;11.51;100.00
22047;BME280;11187;49.412;20.956;2023-06-14T00:58:36;94855.09;;;11.53;100.00
22047;BME280;11187;49.412;20.956;2023-06-14T01:01:24;94852.56;;;11.51;100.00
22047;BME280;11187;49.412;20.956;2023-06-14T01:03:57;94854.28;;;11.50;100.00
22047;BME280;11187;49.412;20.956;2023-06-14T01:09:51;94849.25;;;11.47;100.00
22047;BME280;11187;49.412;20.956;2023-06-14T01:12:47;94844.13;;;11.47;100.00
22047;BME280;11187;49.412;20.956;2023-06-14T01:15:31;94846.69;;;11.47;100.00
22047;BME280;11187;49.412;20.956;2023-06-14T01:18:05;94839.84;;;11.48;100.00
22047;BME280;11187;49.412;20.956;2023-06-14T01:20:58;94843.22;;;11.48;100.00
22047;BME280;11187;49.412;20.956;2023-06-14T01:23:32;94838.94;;;11.49;100.00
22047;BME280;11187;49.412;20.956;2023-06-14T01:26:27;94835.50;;;11.50;100.00
22047;BME280;11187;49.412;20.956;2023-06-14T01:29:24;94838.06;;;11.50;100.00
22047;BME280;11187;49.412;20.956;2023-06-14T01:32:24;94833.78;;;11.50;100.00
22047;BME280;11187;49.412;20.956;2023-06-14T01:34:59;94840.63;;;11.50;100.00
22047;BME280;11187;49.412;20.956;2023-06-14T01:37:53;94842.31;;;11.51;100.00
22047;BME280;11187;49.412;20.956;2023-06-14T01:40:48;94839.75;;;11.51;100.00
22047;BME280;11187;49.412;20.956;2023-06-14T01:43:42;94833.78;;;11.50;100.00
22047;BME280;11187;49.412;20.956;2023-06-14T01:46:36;94837.19;;;11.51;100.00
22047;BME280;11187;49.412;20.956;2023-06-14T01:49:11;94832.91;;;11.52;100.00
22047;BME280;11187;49.412;20.956;2023-06-14T01:51:57;94831.22;;;11.50;100.00
22047;BME280;11187;49.412;20.956;2023-06-14T01:54:31;94833.78;;;11.50;100.00
22047;BME280;11187;49.412;20.956;2023-06-14T01:57:23;94839.81;;;11.49;100.00
22047;BME280;11187;49.412;20.956;2023-06-14T01:59:57;94832.13;;;11.49;100.00
22047;BME280;11187;49.412;20.956;2023-06-14T02:02:44;94830.41;;;11.48;100.00
22047;BME280;11187;49.412;20.956;2023-06-14T02:05:19;94834.75;;;11.46;100.00
22047;BME280;11187;49.412;20.956;2023-06-14T02:08:12;94834.75;;;11.46;100.00
22047;BME280;11187;49.412;20.956;2023-06-14T02:10:46;94833.91;;;11.46;100.00
22047;BME280;11187;49.412;20.956;2023-06-14T02:13:32;94829.59;;;11.46;100.00
22047;BME280;11187;49.412;20.956;2023-06-14T02:16:07;94823.66;;;11.46;100.00
22047;BME280;11187;49.412;20.956;2023-06-14T02:18:54;94829.56;;;11.48;100.00
22047;BME280;11187;49.412;20.956;2023-06-14T02:21:28;94828.75;;;11.47;100.00
22047;BME280;11187;49.412;20.956;2023-06-14T02:24:14;94836.44;;;11.47;100.00
22047;BME280;11187;49.412;20.956;2023-06-14T02:26:48;94833.94;;;11.44;100.00
22047;BME280;11187;49.412;20.956;2023-06-14T02:29:34;94840.84;;;11.42;100.00
22047;BME280;11187;49.412;20.956;2023-06-14T02:32:11;94834.91;;;11.40;100.00
22047;BME280;11187;49.412;20.956;2023-06-14T02:34:57;94832.34;;;11.40;100.00
22047;BME280;11187;49.412;20.956;2023-06-14T02:37:31;94827.22;;;11.40;100.00
22047;BME280;11187;49.412;20.956;2023-06-14T02:40:24;94833.28;;;11.38;100.00
22047;BME280;11187;49.412;20.956;2023-06-14T02:42:58;94835.84;;;11.38;100.00
22047;BME280;11187;49.412;20.956;2023-06-14T02:45:51;94838.41;;;11.38;100.00
22047;BME280;11187;49.412;20.956;2023-06-14T02:48:45;94831.56;;;11.38;100.00
22047;BME280;11187;49.412;20.956;2023-06-14T02:51:39;94833.31;;;11.36;100.00
22047;BME280;11187;49.412;20.956;2023-06-14T02:54:33;94822.22;;;11.36;100.00
22047;BME280;11187;49.412;20.956;2023-06-14T02:57:07;94829.91;;;11.36;100.00
22047;BME280;11187;49.412;20.956;2023-06-14T03:00:02;94830.78;;;11.35;100.00
22047;BME280;11187;49.412;20.956;2023-06-14T03:02:35;94832.47;;;11.36;100.00
22047;BME280;11187;49.412;20.956;2023-06-14T03:05:22;94830.78;;;11.35;100.00
22047;BME280;11187;49.412;20.956;2023-06-14T03:07:56;94826.47;;;11.35;100.00
22047;BME280;11187;49.412;20.956;2023-06-14T03:10:49;94831.66;;;11.34;100.00
22047;BME280;11187;49.412;20.956;2023-06-14T03:13:23;94826.56;;;11.32;100.00
22047;BME280;11187;49.412;20.956;2023-06-14T03:16:12;94823.13;;;11.33;100.00
22047;BME280;11187;49.412;20.956;2023-06-14T03:18:45;94826.53;;;11.34;100.00
22047;BME280;11187;49.412;20.956;2023-06-14T03:21:38;94831.63;;;11.35;100.00
22047;BME280;11187;49.412;20.956;2023-06-14T03:24:16;94835.06;;;11.34;100.00
22047;BME280;11187;49.412;20.956;2023-06-14T03:27:03;94833.38;;;11.33;100.00
22047;BME280;11187;49.412;20.956;2023-06-14T03:29:37;94834.22;;;11.34;100.00
22047;BME280;11187;49.412;20.956;2023-06-14T03:32:23;94833.34;;;11.35;100.00
22047;BME280;11187;49.412;20.956;2023-06-14T03:34:57;94837.59;;;11.36;100.00
22047;BME280;11187;49.412;20.956;2023-06-14T03:37:45;94835.88;;;11.36;100.00
22047;BME280;11187;49.412;20.956;2023-06-14T03:40:20;94833.31;;;11.36;100.00
22047;BME280;11187;49.412;20.956;2023-06-14T03:43:06;94830.75;;;11.36;100.00
22047;BME280;11187;49.412;20.956;2023-06-14T03:45:40;94835.88;;;11.36;100.00
22047;BME280;11187;49.412;20.956;2023-06-14T03:48:33;94840.06;;;11.39;100.00
22047;BME280;11187;49.412;20.956;2023-06-14T03:51:28;94843.47;;;11.39;100.00
22047;BME280;11187;49.412;20.956;2023-06-14T03:54:01;94840.88;;;11.41;100.00
22047;BME280;11187;49.412;20.956;2023-06-14T03:56:50;94834.91;;;11.40;100.00
22047;BME280;11187;49.412;20.956;2023-06-14T03:59:24;94842.59;;;11.40;100.00
22047;BME280;11187;49.412;20.956;2023-06-14T04:02:11;94841.72;;;11.41;100.00
22047;BME280;11187;49.412;20.956;2023-06-14T04:04:45;94848.56;;;11.41;100.00
22047;BME280;11187;49.412;20.956;2023-06-14T04:07:34;94841.81;;;11.38;100.00
22047;BME280;11187;49.412;20.956;2023-06-14T04:10:12;94842.63;;;11.39;100.00
22047;BME280;11187;49.412;20.956;2023-06-14T04:13:00;94843.47;;;11.39;100.00
22047;BME280;11187;49.412;20.956;2023-06-14T04:15:34;94851.16;;;11.39;100.00
22047;BME280;11187;49.412;20.956;2023-06-14T04:18:22;94855.41;;;11.40;100.00
22047;BME280;11187;49.412;20.956;2023-06-14T04:20:55;94846.81;;;11.43;100.00
22047;BME280;11187;49.412;20.956;2023-06-14T04:23:41;94848.44;;;11.45;100.00
22047;BME280;11187;49.412;20.956;2023-06-14T04:26:17;94845.78;;;11.48;100.00
22047;BME280;11187;49.412;20.956;2023-06-14T04:29:10;94845.00;;;11.46;100.00
22047;BME280;11187;49.412;20.956;2023-06-14T04:31:47;94852.66;;;11.48;100.00
22047;BME280;11187;49.412;20.956;2023-06-14T04:34:41;94855.25;;;11.46;100.00
22047;BME280;11187;49.412;20.956;2023-06-14T04:37:35;94853.47;;;11.48;100.00
22047;BME280;11187;49.412;20.956;2023-06-14T04:40:13;94845.75;;;11.50;100.00
22047;BME280;11187;49.412;20.956;2023-06-14T04:43:06;94844.84;;;11.53;100.00
22047;BME280;11187;49.412;20.956;2023-06-14T04:46:01;94856.78;;;11.54;100.00
22047;BME280;11187;49.412;20.956;2023-06-14T04:48:57;94853.34;;;11.55;100.00
22047;BME280;11187;49.412;20.956;2023-06-14T04:51:30;94850.75;;;11.56;100.00
22047;BME280;11187;49.412;20.956;2023-06-14T04:54:16;94847.31;;;11.56;100.00
22047;BME280;11187;49.412;20.956;2023-06-14T04:56:51;94848.19;;;11.56;100.00
22047;BME280;11187;49.412;20.956;2023-06-14T04:59:37;94851.56;;;11.57;100.00
22047;BME280;11187;49.412;20.956;2023-06-14T05:02:11;94851.53;;;11.58;100.00
22047;BME280;11187;49.412;20.956;2023-06-14T05:05:05;94857.50;;;11.59;100.00
22047;BME280;11187;49.412;20.956;2023-06-14T05:07:39;94857.44;;;11.60;100.00
22047;BME280;11187;49.412;20.956;2023-06-14T05:10:27;94857.50;;;11.59;100.00
22047;BME280;11187;49.412;20.956;2023-06-14T05:13:00;94855.78;;;11.59;100.00
22047;BME280;11187;49.412;20.956;2023-06-14T05:15:47;94858.38;;;11.58;100.00
22047;BME280;11187;49.412;20.956;2023-06-14T05:18:20;94857.50;;;11.59;100.00
22047;BME280;11187;49.412;20.956;2023-06-14T05:21:14;94862.63;;;11.59;100.00
22047;BME280;11187;49.412;20.956;2023-06-14T05:23:50;94860.88;;;11.61;100.00
22047;BME280;11187;49.412;20.956;2023-06-14T05:26:44;94862.53;;;11.62;100.00
22047;BME280;11187;49.412;20.956;2023-06-14T05:29:17;94859.94;;;11.63;100.00
22047;BME280;11187;49.412;20.956;2023-06-14T05:32:11;94865.88;;;11.65;100.00
22047;BME280;11187;49.412;20.956;2023-06-14T05:35:05;94863.22;;;11.68;100.00
22047;BME280;11187;49.412;20.956;2023-06-14T05:37:40;94862.28;;;11.71;100.00
22047;BME280;11187;49.412;20.956;2023-06-14T05:40:35;94868.22;;;11.73;100.00
22047;BME280;11187;49.412;20.956;2023-06-14T05:43:29;94869.84;;;11.77;100.00
22047;BME280;11187;49.412;20.956;2023-06-14T05:46:02;94868.06;;;11.79;100.00
22047;BME280;11187;49.412;20.956;2023-06-14T05:48:49;94871.47;;;11.80;100.00
22047;BME280;11187;49.412;20.956;2023-06-14T05:51:22;94868.09;;;11.78;100.00
22047;BME280;11187;49.412;20.956;2023-06-14T05:54:10;94873.22;;;11.78;100.00
22047;BME280;11187;49.412;20.956;2023-06-14T05:56:43;94871.56;;;11.77;100.00
22047;BME280;11187;49.412;20.956;2023-06-14T05:59:30;94876.72;;;11.75;100.00
22047;BME280;11187;49.412;20.956;2023-06-14T06:02:03;94877.56;;;11.76;100.00
22047;BME280;11187;49.412;20.956;2023-06-14T06:04:58;94873.22;;;11.78;100.00
22047;BME280;11187;49.412;20.956;2023-06-14T06:07:53;94874.97;;;11.77;100.00
22047;BME280;11187;49.412;20.956;2023-06-14T06:10:47;94872.41;;;11.77;100.00
22047;BME280;11187;49.412;20.956;2023-06-14T06:13:41;94874.06;;;11.78;100.00
22047;BME280;11187;49.412;20.956;2023-06-14T06:16:35;94882.56;;;11.80;100.00
22047;BME280;11187;49.412;20.956;2023-06-14T06:19:29;94882.50;;;11.83;100.00
22047;BME280;11187;49.412;20.956;2023-06-14T06:22:23;94885.88;;;11.85;100.00
22047;BME280;11187;49.412;20.956;2023-06-14T06:24:56;94886.69;;;11.86;100.00
22047;BME280;11187;49.412;20.956;2023-06-14T06:27:43;94884.09;;;11.87;100.00
22047;BME280;11187;49.412;20.956;2023-06-14T06:30:16;94888.38;;;11.88;100.00
22047;BME280;11187;49.412;20.956;2023-06-14T06:33:03;94886.59;;;11.90;100.00
22047;BME280;11187;49.412;20.956;2023-06-14T06:35:36;94891.75;;;11.90;100.00
22047;BME280;11187;49.412;20.956;2023-06-14T06:38:23;94897.69;;;11.91;100.00
22047;BME280;11187;49.412;20.956;2023-06-14T06:40:56;94892.56;;;11.91;100.00
22047;BME280;11187;49.412;20.956;2023-06-14T06:43:43;94900.25;;;11.93;100.00
22047;BME280;11187;49.412;20.956;2023-06-14T06:46:16;94905.41;;;11.91;100.00
22047;BME280;11187;49.412;20.956;2023-06-14T06:49:03;94907.06;;;11.92;100.00
22047;BME280;11187;49.412;20.956;2023-06-14T06:51:36;94910.53;;;11.91;100.00
22047;BME280;11187;49.412;20.956;2023-06-14T06:54:23;94911.44;;;11.90;100.00
22047;BME280;11187;49.412;20.956;2023-06-14T06:56:56;94913.13;;;11.89;100.00
22047;BME280;11187;49.412;20.956;2023-06-14T06:59:50;94922.56;;;11.89;100.00
22047;BME280;11187;49.412;20.956;2023-06-14T07:02:44;94919.16;;;11.88;100.00
22047;BME280;11187;49.412;20.956;2023-06-14T07:05:18;94918.25;;;11.89;100.00
22047;BME280;11187;49.412;20.956;2023-06-14T07:08:05;94922.53;;;11.90;100.00
22047;BME280;11187;49.412;20.956;2023-06-14T07:10:38;94920.81;;;11.89;100.00
22047;BME280;11187;49.412;20.956;2023-06-14T07:13:32;94921.69;;;11.90;100.00
22047;BME280;11187;49.412;20.956;2023-06-14T07:16:26;94925.91;;;11.91;100.00
22047;BME280;11187;49.412;20.956;2023-06-14T07:18:59;94925.88;;;11.93;100.00
22047;BME280;11187;49.412;20.956;2023-06-14T07:21:53;94924.06;;;11.96;100.00
22047;BME280;11187;49.412;20.956;2023-06-14T07:24:47;94932.53;;;12.00;100.00
22047;BME280;11187;49.412;20.956;2023-06-14T07:27:20;94929.97;;;12.00;100.00
22047;BME280;11187;49.412;20.956;2023-06-14T07:30:07;94930.72;;;12.03;100.00
22047;BME280;11187;49.412;20.956;2023-06-14T07:32:41;94941.78;;;12.05;100.00
22047;BME280;11187;49.412;20.956;2023-06-14T07:35:35;94940.84;;;12.08;100.00
22047;BME280;11187;49.412;20.956;2023-06-14T07:38:29;94940.78;;;12.11;100.00
22047;BME280;11187;49.412;20.956;2023-06-14T07:41:02;94940.78;;;12.11;100.00
22047;BME280;11187;49.412;20.956;2023-06-14T07:43:57;94953.63;;;12.11;100.00
22047;BME280;11187;49.412;20.956;2023-06-14T07:46:51;94944.22;;;12.10;100.00
22047;BME280;11187;49.412;20.956;2023-06-14T07:49:24;94939.84;;;12.14;100.00
22047;BME280;11187;49.412;20.956;2023-06-14T07:52:11;94943.13;;;12.19;100.00
22047;BME280;11187;49.412;20.956;2023-06-14T07:54:44;94941.25;;;12.25;100.00
22047;BME280;11187;49.412;20.956;2023-06-14T07:57:31;94947.03;;;12.32;100.00
22047;BME280;11187;49.412;20.956;2023-06-14T08:00:04;94947.63;;;12.42;100.00
22047;BME280;11187;49.412;20.956;2023-06-14T08:03:02;94942.31;;;12.48;100.00
22047;BME280;11187;49.412;20.956;2023-06-14T08:05:56;94940.31;;;12.58;100.00
22047;BME280;11187;49.412;20.956;2023-06-14T08:08:32;94939.34;;;12.62;100.00
22047;BME280;11187;49.412;20.956;2023-06-14T08:11:27;94937.59;;;12.64;100.00
22047;BME280;11187;49.412;20.956;2023-06-14T08:14:21;94945.16;;;12.68;100.00
22047;BME280;11187;49.412;20.956;2023-06-14T08:16:54;94945.84;;;12.73;100.00
22047;BME280;11187;49.412;20.956;2023-06-14T08:19:41;94948.41;;;12.73;100.00
22047;BME280;11187;49.412;20.956;2023-06-14T08:22:14;94952.69;;;12.74;100.00
22047;BME280;11187;49.412;20.956;2023-06-14T08:25:02;94938.91;;;12.77;100.00
22047;BME280;11187;49.412;20.956;2023-06-14T08:27:35;94948.34;;;12.77;100.00
22047;BME280;11187;49.412;20.956;2023-06-14T08:30:22;94949.22;;;12.75;100.00
22047;BME280;11187;49.412;20.956;2023-06-14T08:32:55;94951.75;;;12.77;100.00
22047;BME280;11187;49.412;20.956;2023-06-14T08:35:56;94955.13;;;12.79;100.00
22047;BME280;11187;49.412;20.956;2023-06-14T08:38:29;94961.06;;;12.81;100.00
22047;BME280;11187;49.412;20.956;2023-06-14T08:41:23;94959.22;;;12.85;100.00
22047;BME280;11187;49.412;20.956;2023-06-14T08:44:17;94960.91;;;12.86;100.00
22047;BME280;11187;49.412;20.956;2023-06-14T08:46:50;94965.09;;;12.90;100.00
22047;BME280;11187;49.412;20.956;2023-06-14T08:49:40;94966.75;;;12.91;100.00
22047;BME280;11187;49.412;20.956;2023-06-14T08:52:20;94964.22;;;12.89;100.00
22047;BME280;11187;49.412;20.956;2023-06-14T08:55:17;94971.88;;;12.92;100.00
22047;BME280;11187;49.412;20.956;2023-06-14T08:58:17;94967.53;;;12.94;100.00
22047;BME280;11187;49.412;20.956;2023-06-14T09:00:50;94964.00;;;12.97;100.00
22047;BME280;11187;49.412;20.956;2023-06-14T09:03:37;94969.16;;;12.97;100.00
22047;BME280;11187;49.412;20.956;2023-06-14T09:06:14;94974.22;;;12.99;100.00
22047;BME280;11187;49.412;20.956;2023-06-14T09:09:03;94968.16;;;13.01;100.00
22047;BME280;11187;49.412;20.956;2023-06-14T09:11:37;94979.16;;;13.06;100.00
22047;BME280;11187;49.412;20.956;2023-06-14T09:14:31;94978.91;;;13.14;100.00
22047;BME280;11187;49.412;20.956;2023-06-14T09:17:04;94975.31;;;13.20;100.00
22047;BME280;11187;49.412;20.956;2023-06-14T09:19:55;94977.69;;;13.26;100.00
22047;BME280;11187;49.412;20.956;2023-06-14T09:22:29;94973.34;;;13.29;100.00
22047;BME280;11187;49.412;20.956;2023-06-14T09:25:16;94977.44;;;13.35;100.00
22047;BME280;11187;49.412;20.956;2023-06-14T09:28:06;94973.78;;;13.42;100.00
22047;BME280;11187;49.412;20.956;2023-06-14T09:31:00;94983.06;;;13.46;100.00
22047;BME280;11187;49.412;20.956;2023-06-14T09:33:34;94976.94;;;13.50;100.00
22047;BME280;11187;49.412;20.956;2023-06-14T09:36:28;94987.22;;;13.50;100.00
22047;BME280;11187;49.412;20.956;2023-06-14T09:39:03;94991.41;;;13.54;100.00
22047;BME280;11187;49.412;20.956;2023-06-14T09:41:50;94974.22;;;13.55;100.00
22047;BME280;11187;49.412;20.956;2023-06-14T09:44:47;94973.41;;;13.54;100.00
22047;BME280;11187;49.412;20.956;2023-06-14T09:47:22;94970.78;;;13.56;100.00
22047;BME280;11187;49.412;20.956;2023-06-14T09:50:16;94981.91;;;13.56;100.00
22047;BME280;11187;49.412;20.956;2023-06-14T09:52:52;94976.72;;;13.58;100.00
22047;BME280;11187;49.412;20.956;2023-06-14T09:55:41;94983.38;;;13.64;100.00
22047;BME280;11187;49.412;20.956;2023-06-14T09:58:16;94980.50;;;13.73;100.00
22047;BME280;11187;49.412;20.956;2023-06-14T10:01:13;94979.34;;;13.83;100.00
22047;BME280;11187;49.412;20.956;2023-06-14T10:04:07;94983.25;;;13.93;100.00
22047;BME280;11187;49.412;20.956;2023-06-14T10:06:45;94984.72;;;14.00;100.00
22047;BME280;11187;49.412;20.956;2023-06-14T10:09:39;94994.19;;;14.00;100.00
22047;BME280;11187;49.412;20.956;2023-06-14T10:12:36;94983.84;;;14.02;100.00
22047;BME280;11187;49.412;20.956;2023-06-14T10:15:41;94992.09;;;14.11;100.00
22047;BME280;11187;49.412;20.956;2023-06-14T10:19:15;94986.78;;;14.16;100.00
22047;BME280;11187;49.412;20.956;2023-06-14T10:25:01;94993.25;;;14.28;100.00
22047;BME280;11187;49.412;20.956;2023-06-14T10:27:35;94987.16;;;14.30;100.00
22047;BME280;11187;49.412;20.956;2023-06-14T10:30:25;94984.16;;;14.43;100.00
22047;BME280;11187;49.412;20.956;2023-06-14T10:33:07;94976.66;;;14.60;100.00
22047;BME280;11187;49.412;20.956;2023-06-14T10:41:54;94969.91;;;15.27;100.00
22047;BME280;11187;49.412;20.956;2023-06-14T10:44:52;94969.31;;;15.42;100.00
22047;BME280;11187;49.412;20.956;2023-06-14T10:47:48;94966.16;;;15.56;100.00
22047;BME280;11187;49.412;20.956;2023-06-14T10:50:27;94964.09;;;15.64;100.00
22047;BME280;11187;49.412;20.956;2023-06-14T10:53:22;94957.97;;;15.66;100.00
22047;BME280;11187;49.412;20.956;2023-06-14T10:55:56;94957.91;;;15.68;100.00
22047;BME280;11187;49.412;20.956;2023-06-14T10:58:59;94953.97;;;15.59;100.00
22047;BME280;11187;49.412;20.956;2023-06-14T11:01:56;94950.75;;;15.54;100.00
22047;BME280;11187;49.412;20.956;2023-06-14T11:04:49;94956.97;;;15.49;100.00
22047;BME280;11187;49.412;20.956;2023-06-14T11:10:39;94950.69;;;15.56;100.00
22047;BME280;11187;49.412;20.956;2023-06-14T11:13:16;94961.00;;;15.56;100.00
22047;BME280;11187;49.412;20.956;2023-06-14T11:16:10;94971.56;;;15.50;100.00
22047;BME280;11187;49.412;20.956;2023-06-14T11:18:44;94976.72;;;15.50;100.00
22047;BME280;11187;49.412;20.956;2023-06-14T11:21:34;94974.16;;;15.50;100.00
22047;BME280;11187;49.412;20.956;2023-06-14T11:24:10;94965.56;;;15.49;100.00
22047;BME280;11187;49.412;20.956;2023-06-14T11:26:57;94969.03;;;15.48;100.00
22047;BME280;11187;49.412;20.956;2023-06-14T11:29:30;94965.50;;;15.51;100.00
22047;BME280;11187;49.412;20.956;2023-06-14T11:32:17;94960.47;;;15.48;100.00
22047;BME280;11187;49.412;20.956;2023-06-14T11:34:50;94961.56;;;15.42;100.00
22047;BME280;11187;49.412;20.956;2023-06-14T11:37:45;94958.31;;;15.37;100.00
22047;BME280;11187;49.412;20.956;2023-06-14T11:40:18;94956.75;;;15.33;100.00
22047;BME280;11187;49.412;20.956;2023-06-14T11:43:05;94953.31;;;15.32;100.00
22047;BME280;11187;49.412;20.956;2023-06-14T11:45:38;94954.88;;;15.36;100.00
22047;BME280;11187;49.412;20.956;2023-06-14T11:48:41;94956.56;;;15.37;100.00
22047;BME280;11187;49.412;20.956;2023-06-14T11:51:15;94955.66;;;15.38;100.00
22047;BME280;11187;49.412;20.956;2023-06-14T11:54:03;94951.94;;;15.45;100.00
22047;BME280;11187;49.412;20.956;2023-06-14T11:56:36;94949.94;;;15.52;100.00
22047;BME280;11187;49.412;20.956;2023-06-14T11:59:31;94942.75;;;15.60;100.00
22047;BME280;11187;49.412;20.956;2023-06-14T12:02:25;94945.38;;;15.59;100.00
22047;BME280;11187;49.412;20.956;2023-06-14T12:05:20;94946.41;;;15.55;100.00
22047;BME280;11187;49.412;20.956;2023-06-14T12:08:03;94949.00;;;15.55;100.00
22047;BME280;11187;49.412;20.956;2023-06-14T12:10:51;94947.25;;;15.55;100.00
22047;BME280;11187;49.412;20.956;2023-06-14T12:13:24;94949.03;;;15.53;100.00
22047;BME280;11187;49.412;20.956;2023-06-14T12:16:11;94946.53;;;15.52;100.00
22047;BME280;11187;49.412;20.956;2023-06-14T12:18:45;94944.97;;;15.48;100.00
22047;BME280;11187;49.412;20.956;2023-06-14T12:21:39;94943.22;;;15.48;100.00
22047;BME280;11187;49.412;20.956;2023-06-14T12:24:35;94938.91;;;15.49;100.00
22047;BME280;11187;49.412;20.956;2023-06-14T12:27:08;94932.69;;;15.54;100.00
22047;BME280;11187;49.412;20.956;2023-06-14T12:29:59;94922.34;;;15.54;100.00
22047;BME280;11187;49.412;20.956;2023-06-14T12:32:32;94912.88;;;15.55;100.00
22047;BME280;11187;49.412;20.956;2023-06-14T12:35:19;94915.38;;;15.56;100.00
22047;BME280;11187;49.412;20.956;2023-06-14T12:37:52;94915.34;;;15.58;100.00
22047;BME280;11187;49.412;20.956;2023-06-14T12:40:39;94921.19;;;15.61;100.00
22047;BME280;11187;49.412;20.956;2023-06-14T12:43:12;94921.19;;;15.61;100.00
22047;BME280;11187;49.412;20.956;2023-06-14T12:46:00;94914.38;;;15.60;100.00
22047;BME280;11187;49.412;20.956;2023-06-14T12:48:33;94922.13;;;15.60;100.00
22047;BME280;11187;49.412;20.956;2023-06-14T12:51:27;94921.34;;;15.58;100.00
22047;BME280;11187;49.412;20.956;2023-06-14T12:54:21;94932.53;;;15.57;100.00
22047;BME280;11187;49.412;20.956;2023-06-14T12:57:20;94938.66;;;15.55;100.00
22047;BME280;11187;49.412;20.956;2023-06-14T13:00:14;94946.47;;;15.53;100.00
22047;BME280;11187;49.412;20.956;2023-06-14T13:03:10;94944.06;;;15.49;100.00
22047;BME280;11187;49.412;20.956;2023-06-14T13:06:04;94941.56;;;15.47;100.00
22047;BME280;11187;49.412;20.956;2023-06-14T13:08:38;94943.41;;;15.43;100.00
22047;BME280;11187;49.412;20.956;2023-06-14T13:11:32;94942.81;;;15.37;100.00
22047;BME280;11187;49.412;20.956;2023-06-14T13:14:05;94948.13;;;15.34;100.00
22047;BME280;11187;49.412;20.956;2023-06-14T13:17:05;94947.47;;;15.29;100.00
22047;BME280;11187;49.412;20.956;2023-06-14T13:19:38;94949.19;;;15.28;100.00
22047;BME280;11187;49.412;20.956;2023-06-14T13:22:25;94949.38;;;15.23;100.00
22047;BME280;11187;49.412;20.956;2023-06-14T13:24:58;94958.16;;;15.19;100.00
22047;BME280;11187;49.412;20.956;2023-06-14T13:28:00;94953.16;;;15.15;100.00
22047;BME280;11187;49.412;20.956;2023-06-14T13:30:54;94953.25;;;15.12;100.00
22047;BME280;11187;49.412;20.956;2023-06-14T13:33:28;94960.16;;;15.11;100.00
22047;BME280;11187;49.412;20.956;2023-06-14T13:36:15;94963.72;;;15.09;100.00
22047;BME280;11187;49.412;20.956;2023-06-14T13:38:49;94969.03;;;15.04;100.00
22047;BME280;11187;49.412;20.956;2023-06-14T13:41:43;94978.69;;;14.99;100.00
22047;BME280;11187;49.412;20.956;2023-06-14T13:44:37;94990.91;;;14.94;100.00
22047;BME280;11187;49.412;20.956;2023-06-14T13:47:31;95002.34;;;14.87;100.00
22047;BME280;11187;49.412;20.956;2023-06-14T13:50:06;95002.50;;;14.82;100.00
22047;BME280;11187;49.412;20.956;2023-06-14T13:53:00;95015.59;;;14.76;100.00
22047;BME280;11187;49.412;20.956;2023-06-14T13:55:33;95020.84;;;14.74;100.00
22047;BME280;11187;49.412;20.956;2023-06-14T13:58:20;95023.50;;;14.71;100.00
22047;BME280;11187;49.412;20.956;2023-06-14T14:00:53;95030.41;;;14.71;100.00
22047;BME280;11187;49.412;20.956;2023-06-14T14:03:49;95026.16;;;14.70;100.00
22047;BME280;11187;49.412;20.956;2023-06-14T14:06:43;95024.63;;;14.64;100.00
22047;BME280;11187;49.412;20.956;2023-06-14T14:09:16;95027.44;;;14.58;100.00
22047;BME280;11187;49.412;20.956;2023-06-14T14:12:03;95028.41;;;14.54;100.00
22047;BME280;11187;49.412;20.956;2023-06-14T14:14:37;95024.28;;;14.48;100.00
22047;BME280;11187;49.412;20.956;2023-06-14T14:17:31;95024.53;;;14.42;100.00
22047;BME280;11187;49.412;20.956;2023-06-14T14:20:25;95021.41;;;14.32;100.00
22047;BME280;11187;49.412;20.956;2023-06-14T14:22:59;95018.28;;;14.24;100.00
22047;BME280;11187;49.412;20.956;2023-06-14T14:25:46;95015.91;;;14.18;100.00